createdAt,value
2022-12-03T00:00:07.446Z,92.60
2022-12-03T00:00:18.789Z,92.60
2022-12-03T00:00:29.560Z,92.60
2022-12-03T00:00:40.297Z,92.60
2022-12-03T00:00:52.043Z,92.60
2022-12-03T00:01:04.256Z,92.60
2022-12-03T00:01:15.978Z,92.60
2022-12-03T00:01:29.208Z,92.60
2022-12-03T00:01:40.023Z,92.71
2022-12-03T00:01:50.815Z,92.71
2022-12-03T00:02:03.103Z,92.71
2022-12-03T00:02:14.050Z,92.71
2022-12-03T00:02:25.867Z,92.82
2022-12-03T00:02:36.758Z,92.82
2022-12-03T00:02:47.670Z,92.82
2022-12-03T00:02:58.650Z,92.82
2022-12-03T00:03:11.267Z,92.82
2022-12-03T00:03:25.144Z,92.82
2022-12-03T00:03:36.156Z,92.82
2022-12-03T00:03:47.192Z,92.82
2022-12-03T00:03:59.851Z,92.82
2022-12-03T00:04:12.100Z,92.82
2022-12-03T00:04:23.100Z,92.82
2022-12-03T00:04:33.868Z,92.82
2022-12-03T00:04:44.692Z,92.71
2022-12-03T00:04:56.388Z,92.71
2022-12-03T00:05:08.132Z,92.71
2022-12-03T00:05:18.889Z,92.71
2022-12-03T00:05:29.668Z,92.60
2022-12-03T00:05:48.332Z,92.60
2022-12-03T00:05:56.088Z,92.60
2022-12-03T00:06:06.845Z,92.60
2022-12-03T00:06:20.080Z,92.50
2022-12-03T00:06:34.684Z,92.50
2022-12-03T00:06:45.749Z,92.50
2022-12-03T00:06:58.165Z,92.50
2022-12-03T00:07:09.869Z,92.50
2022-12-03T00:07:20.636Z,92.50
2022-12-03T00:07:32.373Z,92.50
2022-12-03T00:07:43.941Z,92.50
2022-12-03T00:07:54.898Z,92.50
2022-12-03T00:08:07.409Z,92.50
2022-12-03T00:08:18.281Z,92.40
2022-12-03T00:08:29.116Z,92.40
2022-12-03T00:08:39.870Z,92.40
2022-12-03T00:08:51.575Z,92.40
2022-12-03T00:09:02.326Z,92.50
2022-12-03T00:09:14.737Z,92.50
2022-12-03T00:09:27.955Z,92.50
2022-12-03T00:09:40.399Z,92.40
2022-12-03T00:09:51.208Z,92.50
2022-12-03T00:10:02.918Z,92.50
2022-12-03T00:10:13.711Z,92.50
2022-12-03T00:10:25.435Z,92.50
2022-12-03T00:10:38.619Z,92.50
2022-12-03T00:10:49.379Z,92.50
2022-12-03T00:11:01.102Z,92.50
2022-12-03T00:11:11.860Z,92.50
2022-12-03T00:11:22.639Z,92.40
2022-12-03T00:11:35.059Z,92.40
2022-12-03T00:11:47.539Z,92.40
2022-12-03T00:11:58.355Z,92.40
2022-12-03T00:12:10.799Z,92.40
2022-12-03T00:12:23.220Z,92.40
2022-12-03T00:12:36.410Z,92.50
2022-12-03T00:12:47.180Z,92.50
2022-12-03T00:12:59.631Z,92.50
2022-12-03T00:13:10.390Z,92.50
2022-12-03T00:13:22.845Z,92.50
2022-12-03T00:13:33.614Z,92.50
2022-12-03T00:13:45.351Z,92.50
2022-12-03T00:13:57.809Z,92.50
2022-12-03T00:14:10.029Z,92.50
2022-12-03T00:14:22.693Z,92.50
2022-12-03T00:14:33.571Z,92.40
2022-12-03T00:14:46.031Z,92.40
2022-12-03T00:14:56.966Z,92.40
2022-12-03T00:15:08.804Z,92.40
2022-12-03T00:15:19.584Z,92.40
2022-12-03T00:15:30.382Z,92.40
2022-12-03T00:15:41.177Z,92.40
2022-12-03T00:15:54.509Z,92.40
2022-12-03T00:16:05.319Z,92.40
2022-12-03T00:16:16.159Z,92.40
2022-12-03T00:16:27.004Z,92.40
2022-12-03T00:16:39.240Z,92.29
2022-12-03T00:16:51.836Z,92.29
2022-12-03T00:17:02.563Z,92.29
2022-12-03T00:17:14.992Z,92.29
2022-12-03T00:17:25.762Z,92.29
2022-12-03T00:17:37.514Z,92.19
2022-12-03T00:17:48.303Z,92.19
2022-12-03T00:18:00.011Z,92.08
2022-12-03T00:18:10.810Z,92.08
2022-12-03T00:18:22.548Z,91.98
2022-12-03T00:18:33.291Z,91.98
2022-12-03T00:18:44.082Z,91.98
2022-12-03T00:18:56.321Z,91.98
2022-12-03T00:19:08.069Z,91.98
2022-12-03T00:19:21.010Z,91.98
2022-12-03T00:19:31.750Z,91.98
2022-12-03T00:19:42.521Z,92.08
2022-12-03T00:19:53.293Z,92.08
2022-12-03T00:20:05.000Z,92.08
2022-12-03T00:20:15.840Z,92.08
2022-12-03T00:20:27.612Z,91.98
2022-12-03T00:20:39.322Z,91.98
2022-12-03T00:20:50.062Z,91.98
2022-12-03T00:21:00.851Z,91.98
2022-12-03T00:21:11.629Z,91.98
2022-12-03T00:21:24.623Z,91.98
2022-12-03T00:21:36.686Z,91.98
2022-12-03T00:21:47.482Z,91.98
2022-12-03T00:21:58.230Z,91.98
2022-12-03T00:22:12.641Z,92.08
2022-12-03T00:22:23.603Z,92.08
2022-12-03T00:22:34.343Z,92.08
2022-12-03T00:22:45.160Z,92.08
2022-12-03T00:22:55.911Z,92.08
2022-12-03T00:23:07.602Z,92.19
2022-12-03T00:23:18.381Z,92.19
2022-12-03T00:23:29.125Z,92.19
2022-12-03T00:23:42.440Z,92.29
2022-12-03T00:23:55.022Z,92.29
2022-12-03T00:24:07.471Z,92.29
2022-12-03T00:24:18.231Z,92.29
2022-12-03T00:24:30.965Z,92.40
2022-12-03T00:24:41.693Z,92.40
2022-12-03T00:24:52.625Z,92.40
2022-12-03T00:25:04.611Z,92.40
2022-12-03T00:25:16.322Z,92.40
2022-12-03T00:25:27.062Z,92.50
2022-12-03T00:25:37.845Z,92.50
2022-12-03T00:25:49.541Z,92.50
2022-12-03T00:26:00.315Z,92.50
2022-12-03T00:26:12.020Z,92.50
2022-12-03T00:26:23.800Z,92.40
2022-12-03T00:26:35.532Z,92.40
2022-12-03T00:26:49.153Z,92.40
2022-12-03T00:27:01.612Z,92.29
2022-12-03T00:27:14.103Z,92.29
2022-12-03T00:27:24.871Z,92.19
2022-12-03T00:27:36.623Z,92.19
2022-12-03T00:27:49.074Z,92.08
2022-12-03T00:27:59.811Z,92.08
2022-12-03T00:28:10.540Z,92.08
2022-12-03T00:28:22.993Z,92.08
2022-12-03T00:28:33.763Z,92.08
2022-12-03T00:28:46.192Z,92.08
2022-12-03T00:28:58.702Z,92.08
2022-12-03T00:29:10.479Z,92.08
2022-12-03T00:29:22.932Z,92.08
2022-12-03T00:29:33.699Z,91.98
2022-12-03T00:29:46.408Z,91.98
2022-12-03T00:29:58.112Z,91.98
2022-12-03T00:30:09.835Z,91.87
2022-12-03T00:30:20.642Z,91.87
2022-12-03T00:30:31.468Z,91.87
2022-12-03T00:30:42.278Z,91.87
2022-12-03T00:30:54.317Z,91.87
2022-12-03T00:31:05.208Z,91.77
2022-12-03T00:31:16.022Z,91.77
2022-12-03T00:31:26.877Z,91.66
2022-12-03T00:31:37.755Z,91.56
2022-12-03T00:31:49.504Z,91.56
2022-12-03T00:32:00.273Z,91.56
2022-12-03T00:32:12.733Z,91.56
2022-12-03T00:32:25.432Z,91.46
2022-12-03T00:32:36.213Z,91.56
2022-12-03T00:32:48.663Z,91.56
2022-12-03T00:32:59.482Z,91.56
2022-12-03T00:33:10.290Z,91.56
2022-12-03T00:33:21.066Z,91.56
2022-12-03T00:33:34.265Z,91.66
2022-12-03T00:33:46.736Z,91.77
2022-12-03T00:33:57.504Z,91.77
2022-12-03T00:34:10.223Z,91.87
2022-12-03T00:34:20.974Z,91.87
2022-12-03T00:34:33.394Z,91.98
2022-12-03T00:34:45.167Z,91.98
2022-12-03T00:34:57.613Z,92.08
2022-12-03T00:35:08.386Z,92.08
2022-12-03T00:35:19.176Z,92.19
2022-12-03T00:35:31.414Z,92.19
2022-12-03T00:35:42.258Z,92.19
2022-12-03T00:35:53.983Z,92.19
2022-12-03T00:36:06.253Z,92.19
2022-12-03T00:36:17.944Z,92.19
2022-12-03T00:36:28.702Z,92.29
2022-12-03T00:36:40.329Z,92.19
2022-12-03T00:36:51.124Z,92.19
2022-12-03T00:37:01.913Z,92.19
2022-12-03T00:37:13.628Z,92.19
2022-12-03T00:37:24.397Z,92.19
2022-12-03T00:37:35.160Z,92.19
2022-12-03T00:37:46.874Z,92.19
2022-12-03T00:37:57.623Z,92.08
2022-12-03T00:38:09.365Z,92.08
2022-12-03T00:38:21.097Z,91.98
2022-12-03T00:38:31.873Z,91.98
2022-12-03T00:38:44.334Z,91.87
2022-12-03T00:38:56.844Z,91.87
2022-12-03T00:39:09.295Z,91.87
2022-12-03T00:39:20.075Z,91.77
2022-12-03T00:39:30.816Z,91.77
2022-12-03T00:39:41.575Z,91.77
2022-12-03T00:39:54.063Z,91.77
2022-12-03T00:40:06.484Z,91.66
2022-12-03T00:40:17.215Z,91.71
2022-12-03T00:40:27.960Z,91.56
2022-12-03T00:40:40.448Z,91.56
2022-12-03T00:40:51.256Z,91.60
2022-12-03T00:41:03.694Z,91.60
2022-12-03T00:41:17.426Z,91.66
2022-12-03T00:41:29.259Z,91.66
2022-12-03T00:41:40.085Z,91.66
2022-12-03T00:41:50.854Z,91.66
2022-12-03T00:42:01.615Z,91.71
2022-12-03T00:42:12.347Z,91.77
2022-12-03T00:42:24.124Z,91.77
2022-12-03T00:42:34.869Z,91.77
2022-12-03T00:42:45.624Z,91.91
2022-12-03T00:42:56.395Z,91.87
2022-12-03T00:43:07.158Z,91.87
2022-12-03T00:43:17.975Z,91.91
2022-12-03T00:43:29.754Z,91.81
2022-12-03T00:43:40.548Z,91.81
2022-12-03T00:43:51.282Z,91.77
2022-12-03T00:44:02.043Z,91.81
2022-12-03T00:44:12.843Z,91.81
2022-12-03T00:44:23.604Z,91.81
2022-12-03T00:44:34.336Z,91.81
2022-12-03T00:44:45.094Z,91.81
2022-12-03T00:44:55.995Z,91.81
2022-12-03T00:45:06.890Z,91.81
2022-12-03T00:45:18.636Z,91.81
2022-12-03T00:45:29.487Z,91.81
2022-12-03T00:45:40.215Z,91.81
2022-12-03T00:45:50.970Z,91.81
2022-12-03T00:46:02.751Z,91.81
2022-12-03T00:46:18.262Z,91.77
2022-12-03T00:46:31.246Z,91.81
2022-12-03T00:46:42.108Z,91.81
2022-12-03T00:46:52.987Z,91.81
2022-12-03T00:47:03.859Z,91.81
2022-12-03T00:47:16.727Z,91.91
2022-12-03T00:47:29.716Z,91.91
2022-12-03T00:47:41.428Z,91.81
2022-12-03T00:47:52.207Z,91.81
2022-12-03T00:48:04.656Z,91.81
2022-12-03T00:48:15.463Z,91.81
2022-12-03T00:48:26.215Z,91.81
2022-12-03T00:48:36.984Z,91.81
2022-12-03T00:48:47.749Z,91.77
2022-12-03T00:48:58.478Z,91.81
2022-12-03T00:49:09.257Z,91.91
2022-12-03T00:49:22.476Z,91.81
2022-12-03T00:49:34.166Z,91.81
2022-12-03T00:49:44.956Z,91.81
2022-12-03T00:49:55.758Z,91.81
2022-12-03T00:50:06.526Z,91.81
2022-12-03T00:50:18.965Z,91.91
2022-12-03T00:50:29.736Z,91.91
2022-12-03T00:50:40.515Z,91.91
2022-12-03T00:50:51.305Z,91.91
2022-12-03T00:51:03.767Z,91.91
2022-12-03T00:51:14.558Z,91.91
2022-12-03T00:51:25.297Z,92.02
2022-12-03T00:51:37.024Z,92.02
2022-12-03T00:51:48.766Z,92.02
2022-12-03T00:51:59.544Z,92.02
2022-12-03T00:52:11.546Z,92.13
2022-12-03T00:52:24.075Z,92.13
2022-12-03T00:52:34.837Z,92.02
2022-12-03T00:52:46.585Z,92.13
2022-12-03T00:52:57.366Z,92.13
2022-12-03T00:53:08.177Z,92.13
2022-12-03T00:53:21.877Z,92.13
2022-12-03T00:53:32.638Z,92.13
2022-12-03T00:53:43.376Z,92.23
2022-12-03T00:53:54.176Z,92.23
2022-12-03T00:54:06.974Z,92.13
2022-12-03T00:54:20.686Z,92.23
2022-12-03T00:54:32.471Z,92.13
2022-12-03T00:54:43.190Z,92.23
2022-12-03T00:54:56.348Z,92.23
2022-12-03T00:55:07.215Z,92.23
2022-12-03T00:55:18.002Z,92.23
2022-12-03T00:55:29.708Z,92.23
2022-12-03T00:55:41.476Z,92.23
2022-12-03T00:55:52.400Z,92.23
2022-12-03T00:56:04.627Z,92.23
2022-12-03T00:56:15.397Z,92.23
2022-12-03T00:56:26.174Z,92.23
2022-12-03T00:56:38.667Z,92.23
2022-12-03T00:56:49.418Z,92.23
2022-12-03T00:57:01.377Z,92.23
2022-12-03T00:57:12.101Z,92.23
2022-12-03T00:57:22.881Z,92.23
2022-12-03T00:57:33.669Z,92.23
2022-12-03T00:57:46.195Z,92.23
2022-12-03T00:57:57.919Z,92.23
2022-12-03T00:58:09.636Z,92.33
2022-12-03T00:58:20.438Z,92.33
2022-12-03T00:58:32.196Z,92.33
2022-12-03T00:58:44.442Z,92.44
2022-12-03T00:58:56.184Z,92.44
2022-12-03T00:59:07.929Z,92.54
2022-12-03T00:59:18.715Z,92.54
2022-12-03T00:59:29.654Z,92.54
2022-12-03T00:59:40.406Z,92.65
2022-12-03T00:59:52.638Z,92.65
2022-12-03T01:00:04.356Z,92.65
2022-12-03T01:00:15.218Z,92.54
2022-12-03T01:00:26.057Z,92.54
2022-12-03T01:00:36.872Z,92.44
2022-12-03T01:00:48.639Z,92.33
2022-12-03T01:01:01.170Z,92.33
2022-12-03T01:01:12.961Z,92.23
2022-12-03T01:01:23.834Z,92.13
2022-12-03T01:01:35.672Z,92.02
2022-12-03T01:01:47.451Z,92.02
2022-12-03T01:01:59.313Z,91.91
2022-12-03T01:02:11.217Z,91.91
2022-12-03T01:02:23.069Z,91.91
2022-12-03T01:02:36.828Z,91.91
2022-12-03T01:02:48.648Z,92.02
2022-12-03T01:03:00.416Z,92.02
2022-12-03T01:03:11.188Z,92.02
2022-12-03T01:03:21.975Z,92.02
2022-12-03T01:03:33.697Z,92.02
2022-12-03T01:03:44.480Z,92.02
2022-12-03T01:03:56.224Z,92.02
2022-12-03T01:04:07.029Z,92.02
2022-12-03T01:04:19.610Z,92.13
2022-12-03T01:04:32.670Z,92.13
2022-12-03T01:04:44.960Z,92.02
2022-12-03T01:04:56.167Z,92.02
2022-12-03T01:05:08.943Z,92.02
2022-12-03T01:05:19.832Z,92.02
2022-12-03T01:05:32.882Z,92.02
2022-12-03T01:05:43.678Z,92.02
2022-12-03T01:05:55.441Z,92.02
2022-12-03T01:06:08.621Z,91.91
2022-12-03T01:06:19.460Z,91.91
2022-12-03T01:06:31.188Z,91.91
2022-12-03T01:06:41.959Z,91.81
2022-12-03T01:06:52.721Z,91.81
2022-12-03T01:07:03.472Z,91.81
2022-12-03T01:07:14.269Z,91.81
2022-12-03T01:07:26.807Z,91.81
2022-12-03T01:07:37.650Z,91.81
2022-12-03T01:07:48.499Z,91.81
2022-12-03T01:08:00.306Z,91.81
2022-12-03T01:08:11.176Z,91.81
2022-12-03T01:08:21.939Z,91.81
2022-12-03T01:08:33.670Z,91.81
2022-12-03T01:08:44.430Z,91.81
2022-12-03T01:08:56.978Z,91.91
2022-12-03T01:09:07.749Z,91.91
2022-12-03T01:09:20.688Z,91.91
2022-12-03T01:09:31.494Z,91.91
2022-12-03T01:09:43.239Z,92.02
2022-12-03T01:09:54.007Z,92.02
2022-12-03T01:10:04.758Z,92.02
2022-12-03T01:10:16.488Z,91.91
2022-12-03T01:10:27.293Z,91.91
2022-12-03T01:10:38.086Z,91.91
2022-12-03T01:10:49.850Z,91.91
2022-12-03T01:11:01.566Z,91.81
2022-12-03T01:11:12.323Z,91.71
2022-12-03T01:11:23.081Z,91.71
2022-12-03T01:11:33.832Z,91.60
2022-12-03T01:11:46.258Z,91.50
2022-12-03T01:11:57.010Z,91.50
2022-12-03T01:12:08.781Z,91.50
2022-12-03T01:12:19.540Z,91.50
2022-12-03T01:12:32.560Z,91.39
2022-12-03T01:12:43.397Z,91.39
2022-12-03T01:12:54.227Z,91.39
2022-12-03T01:13:05.019Z,91.50
2022-12-03T01:13:15.769Z,91.50
2022-12-03T01:13:26.540Z,91.50
2022-12-03T01:13:37.271Z,91.50
2022-12-03T01:13:48.018Z,91.50
2022-12-03T01:13:58.816Z,91.39
2022-12-03T01:14:09.618Z,91.39
2022-12-03T01:14:20.392Z,91.39
2022-12-03T01:14:34.814Z,91.39
2022-12-03T01:14:45.653Z,91.28
2022-12-03T01:14:58.130Z,91.28
2022-12-03T01:15:09.840Z,91.39
2022-12-03T01:15:20.609Z,91.39
2022-12-03T01:15:32.753Z,91.39
2022-12-03T01:15:43.634Z,91.39
2022-12-03T01:15:55.452Z,91.50
2022-12-03T01:16:06.302Z,91.50
2022-12-03T01:16:17.076Z,91.50
2022-12-03T01:16:27.907Z,91.50
2022-12-03T01:16:38.692Z,91.60
2022-12-03T01:16:50.444Z,91.60
2022-12-03T01:17:02.191Z,91.71
2022-12-03T01:17:12.982Z,91.71
2022-12-03T01:17:23.804Z,91.71
2022-12-03T01:17:34.538Z,91.81
2022-12-03T01:17:45.308Z,91.81
2022-12-03T01:17:57.083Z,91.81
2022-12-03T01:18:07.860Z,91.91
2022-12-03T01:18:19.594Z,91.91
2022-12-03T01:18:31.332Z,91.91
2022-12-03T01:18:42.082Z,91.91
2022-12-03T01:18:52.889Z,91.91
2022-12-03T01:19:03.639Z,91.91
2022-12-03T01:19:14.643Z,91.91
2022-12-03T01:19:25.410Z,91.91
2022-12-03T01:19:36.141Z,91.91
2022-12-03T01:19:48.591Z,91.91
2022-12-03T01:19:59.540Z,92.02
2022-12-03T01:20:11.271Z,92.02
2022-12-03T01:20:22.061Z,92.02
2022-12-03T01:20:32.890Z,92.02
2022-12-03T01:20:45.372Z,92.13
2022-12-03T01:20:56.160Z,92.13
2022-12-03T01:21:06.950Z,92.13
2022-12-03T01:21:17.712Z,92.13
2022-12-03T01:21:28.490Z,92.13
2022-12-03T01:21:39.280Z,92.13
2022-12-03T01:21:51.736Z,92.13
2022-12-03T01:22:02.519Z,92.13
2022-12-03T01:22:13.286Z,92.23
2022-12-03T01:22:25.010Z,92.13
2022-12-03T01:22:35.763Z,92.13
2022-12-03T01:22:49.431Z,92.23
2022-12-03T01:23:01.911Z,92.13
2022-12-03T01:23:14.352Z,92.13
2022-12-03T01:23:26.122Z,92.13
2022-12-03T01:23:38.855Z,92.13
2022-12-03T01:23:49.600Z,92.13
2022-12-03T01:24:01.342Z,92.13
2022-12-03T01:24:13.066Z,92.13
2022-12-03T01:24:24.789Z,92.23
2022-12-03T01:24:35.570Z,92.23
2022-12-03T01:24:46.308Z,92.23
2022-12-03T01:24:57.101Z,92.23
2022-12-03T01:25:10.061Z,92.23
2022-12-03T01:25:20.820Z,92.23
2022-12-03T01:25:31.583Z,92.23
2022-12-03T01:25:43.332Z,92.23
2022-12-03T01:25:54.120Z,92.23
2022-12-03T01:26:04.923Z,92.23
2022-12-03T01:26:16.641Z,92.23
2022-12-03T01:26:27.373Z,92.23
2022-12-03T01:26:38.131Z,92.23
2022-12-03T01:26:48.865Z,92.23
2022-12-03T01:26:59.621Z,92.23
2022-12-03T01:27:10.403Z,92.33
2022-12-03T01:27:21.162Z,92.33
2022-12-03T01:27:32.891Z,92.33
2022-12-03T01:27:45.362Z,92.33
2022-12-03T01:27:56.237Z,92.33
2022-12-03T01:28:06.944Z,92.33
2022-12-03T01:28:17.712Z,92.33
2022-12-03T01:28:28.441Z,92.33
2022-12-03T01:28:40.571Z,92.33
2022-12-03T01:28:51.323Z,92.33
2022-12-03T01:29:02.060Z,92.33
2022-12-03T01:29:12.862Z,92.44
2022-12-03T01:29:23.622Z,92.44
2022-12-03T01:29:34.381Z,92.44
2022-12-03T01:29:45.136Z,92.44
2022-12-03T01:29:56.888Z,92.44
2022-12-03T01:30:07.632Z,92.44
2022-12-03T01:30:18.394Z,92.33
2022-12-03T01:30:29.142Z,92.33
2022-12-03T01:30:39.934Z,92.33
2022-12-03T01:30:50.697Z,92.33
2022-12-03T01:31:01.461Z,92.33
2022-12-03T01:31:12.235Z,92.33
2022-12-03T01:31:23.028Z,92.33
2022-12-03T01:31:33.872Z,92.33
2022-12-03T01:31:44.844Z,92.33
2022-12-03T01:31:55.620Z,92.33
2022-12-03T01:32:06.481Z,92.33
2022-12-03T01:32:17.252Z,92.33
2022-12-03T01:32:28.073Z,92.33
2022-12-03T01:32:38.873Z,92.33
2022-12-03T01:32:49.652Z,92.33
2022-12-03T01:33:00.412Z,92.23
2022-12-03T01:33:12.134Z,92.33
2022-12-03T01:33:22.893Z,92.33
2022-12-03T01:33:35.179Z,92.33
2022-12-03T01:33:46.912Z,92.33
2022-12-03T01:33:59.381Z,92.33
2022-12-03T01:34:10.143Z,92.33
2022-12-03T01:34:20.891Z,92.33
2022-12-03T01:34:31.694Z,92.33
2022-12-03T01:34:44.113Z,92.33
2022-12-03T01:34:55.341Z,92.33
2022-12-03T01:35:06.375Z,92.33
2022-12-03T01:35:17.144Z,92.44
2022-12-03T01:35:29.361Z,92.33
2022-12-03T01:35:41.102Z,92.33
2022-12-03T01:35:51.853Z,92.33
2022-12-03T01:36:04.302Z,92.33
2022-12-03T01:36:15.073Z,92.33
2022-12-03T01:36:25.823Z,92.33
2022-12-03T01:36:36.594Z,92.33
2022-12-03T01:36:47.373Z,92.33
2022-12-03T01:36:59.824Z,92.33
2022-12-03T01:37:11.532Z,92.33
2022-12-03T01:37:22.264Z,92.33
2022-12-03T01:37:35.003Z,92.33
2022-12-03T01:37:45.813Z,92.33
2022-12-03T01:37:57.554Z,92.44
2022-12-03T01:38:09.305Z,92.44
2022-12-03T01:38:20.114Z,92.44
2022-12-03T01:38:30.875Z,92.44
2022-12-03T01:38:41.615Z,92.44
2022-12-03T01:38:52.333Z,92.44
2022-12-03T01:39:04.073Z,92.33
2022-12-03T01:39:14.844Z,92.33
2022-12-03T01:39:25.602Z,92.33
2022-12-03T01:39:37.343Z,92.33
2022-12-03T01:39:48.112Z,92.33
2022-12-03T01:39:59.873Z,92.23
2022-12-03T01:40:10.655Z,92.23
2022-12-03T01:40:22.418Z,92.23
2022-12-03T01:40:33.173Z,92.23
2022-12-03T01:40:45.613Z,92.23
2022-12-03T01:40:56.415Z,92.23
2022-12-03T01:41:11.666Z,92.23
2022-12-03T01:41:22.823Z,92.23
2022-12-03T01:41:33.604Z,92.23
2022-12-03T01:41:44.415Z,92.23
2022-12-03T01:41:56.914Z,92.33
2022-12-03T01:42:07.654Z,92.33
2022-12-03T01:42:18.493Z,92.33
2022-12-03T01:42:29.253Z,92.23
2022-12-03T01:42:41.038Z,92.23
2022-12-03T01:42:52.760Z,92.23
2022-12-03T01:43:03.487Z,92.13
2022-12-03T01:43:14.233Z,92.13
2022-12-03T01:43:27.453Z,92.02
2022-12-03T01:43:40.168Z,91.91
2022-12-03T01:43:52.445Z,91.91
2022-12-03T01:44:05.668Z,91.91
2022-12-03T01:44:16.484Z,91.81
2022-12-03T01:44:28.695Z,91.81
2022-12-03T01:44:41.936Z,91.71
2022-12-03T01:44:53.084Z,91.71
2022-12-03T01:45:05.384Z,91.71
2022-12-03T01:45:17.835Z,91.71
2022-12-03T01:45:28.646Z,91.60
2022-12-03T01:45:40.356Z,91.60
2022-12-03T01:45:53.585Z,91.60
2022-12-03T01:46:04.420Z,91.71
2022-12-03T01:46:16.156Z,91.71
2022-12-03T01:46:27.001Z,91.71
2022-12-03T01:46:39.588Z,91.71
2022-12-03T01:46:51.428Z,91.71
2022-12-03T01:47:02.306Z,91.71
2022-12-03T01:47:13.093Z,91.81
2022-12-03T01:47:23.835Z,91.81
2022-12-03T01:47:34.598Z,91.81
2022-12-03T01:47:45.376Z,91.71
2022-12-03T01:47:56.120Z,91.71
2022-12-03T01:48:08.556Z,91.60
2022-12-03T01:48:19.335Z,91.60
2022-12-03T01:48:31.596Z,91.50
2022-12-03T01:48:43.830Z,91.50
2022-12-03T01:48:56.374Z,91.50
2022-12-03T01:49:07.176Z,91.50
2022-12-03T01:49:18.910Z,91.50
2022-12-03T01:49:29.656Z,91.39
2022-12-03T01:49:41.357Z,91.39
2022-12-03T01:49:53.087Z,91.43
2022-12-03T01:50:03.859Z,91.39
2022-12-03T01:50:16.335Z,91.54
2022-12-03T01:50:27.121Z,91.50
2022-12-03T01:50:37.946Z,91.50
2022-12-03T01:50:48.693Z,91.50
2022-12-03T01:50:59.517Z,91.54
2022-12-03T01:51:11.717Z,91.50
2022-12-03T01:51:22.456Z,91.64
2022-12-03T01:51:34.181Z,91.64
2022-12-03T01:51:44.974Z,91.60
2022-12-03T01:51:55.714Z,91.60
2022-12-03T01:52:06.466Z,91.64
2022-12-03T01:52:18.195Z,91.60
2022-12-03T01:52:29.906Z,91.75
2022-12-03T01:52:41.636Z,91.71
2022-12-03T01:52:53.402Z,91.71
2022-12-03T01:53:04.154Z,91.85
2022-12-03T01:53:14.915Z,91.85
2022-12-03T01:53:25.699Z,91.96
2022-12-03T01:53:36.457Z,91.91
2022-12-03T01:53:47.255Z,91.91
2022-12-03T01:53:58.056Z,91.96
2022-12-03T01:54:08.836Z,91.91
2022-12-03T01:54:19.627Z,91.85
2022-12-03T01:54:30.439Z,91.85
2022-12-03T01:54:42.686Z,91.85
2022-12-03T01:54:55.450Z,91.81
2022-12-03T01:55:06.428Z,91.75
2022-12-03T01:55:18.228Z,91.75
2022-12-03T01:55:29.081Z,91.75
2022-12-03T01:55:40.856Z,91.75
2022-12-03T01:55:53.296Z,91.75
2022-12-03T01:56:04.038Z,91.75
2022-12-03T01:56:14.826Z,91.75
2022-12-03T01:56:25.565Z,91.75
2022-12-03T01:56:36.367Z,91.75
2022-12-03T01:56:48.096Z,91.75
2022-12-03T01:56:58.855Z,91.75
2022-12-03T01:57:09.645Z,91.75
2022-12-03T01:57:20.436Z,91.75
2022-12-03T01:57:33.656Z,91.75
2022-12-03T01:57:44.428Z,91.75
2022-12-03T01:57:55.187Z,91.85
2022-12-03T01:58:06.898Z,91.85
2022-12-03T01:58:17.636Z,91.85
2022-12-03T01:58:28.380Z,91.85
2022-12-03T01:58:40.100Z,91.85
2022-12-03T01:58:53.297Z,91.85
2022-12-03T01:59:04.096Z,91.85
2022-12-03T01:59:14.897Z,91.85
2022-12-03T01:59:25.665Z,91.85
2022-12-03T01:59:36.433Z,91.96
2022-12-03T01:59:48.157Z,91.96
2022-12-03T01:59:58.917Z,91.96
2022-12-03T02:00:11.097Z,91.96
2022-12-03T02:00:21.840Z,91.96
2022-12-03T02:00:32.596Z,91.96
2022-12-03T02:00:45.313Z,91.96
2022-12-03T02:00:56.077Z,91.96
2022-12-03T02:01:06.867Z,91.96
2022-12-03T02:01:18.661Z,91.96
2022-12-03T02:01:30.479Z,91.96
2022-12-03T02:01:42.285Z,91.96
2022-12-03T02:01:53.170Z,91.96
2022-12-03T02:02:03.986Z,91.96
2022-12-03T02:02:14.861Z,91.96
2022-12-03T02:02:25.601Z,91.85
2022-12-03T02:02:37.368Z,91.85
2022-12-03T02:02:48.141Z,91.85
2022-12-03T02:02:58.916Z,91.85
2022-12-03T02:03:09.677Z,91.85
2022-12-03T02:03:21.917Z,91.85
2022-12-03T02:03:33.714Z,91.85
2022-12-03T02:03:44.543Z,91.85
2022-12-03T02:03:56.603Z,91.85
2022-12-03T02:04:09.115Z,91.85
2022-12-03T02:04:20.881Z,91.85
2022-12-03T02:04:31.689Z,91.85
2022-12-03T02:04:42.531Z,91.85
2022-12-03T02:04:54.778Z,91.85
2022-12-03T02:05:06.698Z,91.85
2022-12-03T02:05:18.413Z,91.85
2022-12-03T02:05:30.897Z,91.85
2022-12-03T02:05:41.702Z,91.85
2022-12-03T02:05:52.479Z,91.85
2022-12-03T02:06:03.318Z,91.85
2022-12-03T02:06:14.103Z,91.85
2022-12-03T02:06:24.837Z,91.85
2022-12-03T02:06:36.577Z,91.85
2022-12-03T02:06:47.358Z,91.85
2022-12-03T02:06:58.126Z,91.85
2022-12-03T02:07:08.956Z,91.85
2022-12-03T02:07:22.148Z,91.85
2022-12-03T02:07:35.434Z,91.85
2022-12-03T02:07:48.015Z,91.96
2022-12-03T02:07:59.804Z,91.96
2022-12-03T02:08:12.662Z,91.96
2022-12-03T02:08:24.337Z,92.06
2022-12-03T02:08:35.120Z,92.06
2022-12-03T02:08:47.150Z,92.06
2022-12-03T02:08:57.958Z,92.16
2022-12-03T02:09:10.178Z,92.16
2022-12-03T02:09:21.880Z,92.16
2022-12-03T02:09:33.618Z,92.27
2022-12-03T02:09:45.368Z,92.27
2022-12-03T02:09:57.154Z,92.27
2022-12-03T02:10:09.620Z,92.27
2022-12-03T02:10:22.340Z,92.27
2022-12-03T02:10:34.068Z,92.27
2022-12-03T02:10:46.510Z,92.27
2022-12-03T02:10:57.329Z,92.27
2022-12-03T02:11:09.072Z,92.16
2022-12-03T02:11:19.798Z,92.16
2022-12-03T02:11:30.572Z,92.06
2022-12-03T02:11:42.321Z,91.96
2022-12-03T02:11:53.077Z,91.96
2022-12-03T02:12:04.789Z,91.85
2022-12-03T02:12:15.559Z,91.85
2022-12-03T02:12:28.018Z,91.75
2022-12-03T02:12:40.219Z,91.75
2022-12-03T02:12:51.920Z,91.75
2022-12-03T02:13:02.660Z,91.75
2022-12-03T02:13:14.441Z,91.75
2022-12-03T02:13:25.199Z,91.75
2022-12-03T02:13:35.942Z,91.75
2022-12-03T02:13:46.720Z,91.75
2022-12-03T02:13:57.529Z,91.75
2022-12-03T02:14:08.318Z,91.75
2022-12-03T02:14:19.037Z,91.75
2022-12-03T02:14:31.510Z,91.75
2022-12-03T02:14:42.268Z,91.75
2022-12-03T02:14:54.446Z,91.64
2022-12-03T02:15:05.381Z,91.64
2022-12-03T02:15:17.085Z,91.64
2022-12-03T02:15:28.825Z,91.64
2022-12-03T02:15:41.601Z,91.64
2022-12-03T02:15:53.360Z,91.64
2022-12-03T02:16:04.482Z,91.64
2022-12-03T02:16:15.310Z,91.64
2022-12-03T02:16:26.171Z,91.64
2022-12-03T02:16:37.069Z,91.64
2022-12-03T02:16:47.870Z,91.64
2022-12-03T02:16:58.662Z,91.64
2022-12-03T02:17:10.374Z,91.75
2022-12-03T02:17:21.158Z,91.75
2022-12-03T02:17:33.618Z,91.64
2022-12-03T02:17:45.382Z,91.64
2022-12-03T02:17:56.158Z,91.64
2022-12-03T02:18:06.957Z,91.54
2022-12-03T02:18:17.670Z,91.54
2022-12-03T02:18:30.161Z,91.43
2022-12-03T02:18:40.929Z,91.43
2022-12-03T02:18:51.701Z,91.43
2022-12-03T02:19:02.481Z,91.43
2022-12-03T02:19:14.260Z,91.43
2022-12-03T02:19:25.039Z,91.43
2022-12-03T02:19:37.490Z,91.33
2022-12-03T02:19:48.250Z,91.33
2022-12-03T02:19:59.003Z,91.33
2022-12-03T02:20:09.829Z,91.33
2022-12-03T02:20:22.079Z,91.33
2022-12-03T02:20:32.869Z,91.33
2022-12-03T02:20:43.663Z,91.33
2022-12-03T02:20:55.421Z,91.33
2022-12-03T02:21:07.181Z,91.33
2022-12-03T02:21:17.980Z,91.33
2022-12-03T02:21:31.203Z,91.33
2022-12-03T02:21:41.972Z,91.33
2022-12-03T02:21:52.768Z,91.43
2022-12-03T02:22:03.552Z,91.43
2022-12-03T02:22:14.330Z,91.43
2022-12-03T02:22:25.128Z,91.43
2022-12-03T02:22:35.858Z,91.54
2022-12-03T02:22:46.621Z,91.54
2022-12-03T02:22:57.411Z,91.64
2022-12-03T02:23:08.178Z,91.64
2022-12-03T02:23:18.942Z,91.64
2022-12-03T02:23:30.670Z,91.64
2022-12-03T02:23:42.420Z,91.75
2022-12-03T02:23:54.872Z,91.85
2022-12-03T02:24:06.590Z,91.85
2022-12-03T02:24:17.330Z,91.85
2022-12-03T02:24:29.101Z,91.85
2022-12-03T02:24:40.847Z,91.85
2022-12-03T02:24:53.351Z,91.85
2022-12-03T02:25:04.193Z,91.75
2022-12-03T02:25:14.950Z,91.75
2022-12-03T02:25:25.721Z,91.75
2022-12-03T02:25:37.510Z,91.64
2022-12-03T02:25:48.261Z,91.64
2022-12-03T02:26:01.488Z,91.64
2022-12-03T02:26:13.730Z,91.64
2022-12-03T02:26:25.471Z,91.64
2022-12-03T02:26:37.219Z,91.64
2022-12-03T02:26:47.981Z,91.64
2022-12-03T02:26:58.794Z,91.64
2022-12-03T02:27:11.251Z,91.64